sensor_id;sensor_type;location;lat;lon;timestamp;pressure;altitude;pressure_sealevel;temperature;humidity
1776;BME280;885;42.626;23.200;2023-11-22T00:00:57;133378.63;;;11.02;96.74
1776;BME280;885;42.626;23.200;2023-11-22T00:03:24;133411.16;;;11.17;93.81
1776;BME280;885;42.626;23.200;2023-11-22T00:05:51;133068.69;;;11.30;92.78
1776;BME280;885;42.626;23.200;2023-11-22T00:08:19;133899.34;;;11.73;90.81
1776;BME280;885;42.626;23.200;2023-11-22T00:10:46;133910.19;;;11.78;90.22
1776;BME280;885;42.626;23.200;2023-11-22T00:13:12;133899.34;;;11.73;91.47
1776;BME280;885;42.626;23.200;2023-11-22T00:15:39;133520.78;;;11.68;91.05
1776;BME280;885;42.626;23.200;2023-11-22T00:18:06;133550.03;;;11.82;89.83
1776;BME280;885;42.626;23.200;2023-11-22T00:20:33;133554.38;;;11.84;90.75
1776;BME280;885;42.626;23.200;2023-11-22T00:23:00;133528.34;;;11.72;90.39
1776;BME280;885;42.626;23.200;2023-11-22T00:25:28;133137.94;;;11.62;92.15
1776;BME280;885;42.626;23.200;2023-11-22T00:27:53;133482.75;;;11.51;93.43
1776;BME280;885;42.626;23.200;2023-11-22T00:30:20;133082.75;;;11.36;94.02
1776;BME280;885;42.626;23.200;2023-11-22T00:32:48;133073.03;;;11.32;95.17
1776;BME280;885;42.626;23.200;2023-11-22T00:35:16;133063.28;;;11.27;95.63
1776;BME280;885;42.626;23.200;2023-11-22T00:37:43;133053.59;;;11.23;95.09
1776;BME280;885;42.626;23.200;2023-11-22T00:40:12;133055.72;;;11.24;95.14
1776;BME280;885;42.626;23.200;2023-11-22T00:42:40;133044.91;;;11.18;95.65
1776;BME280;885;42.626;23.200;2023-11-22T00:45:09;133024.38;;;11.09;96.31
1776;BME280;885;42.626;23.200;2023-11-22T00:47:36;132644.19;;;11.03;96.69
1776;BME280;885;42.626;23.200;2023-11-22T00:50:05;132635.56;;;10.99;96.02
1776;BME280;885;42.626;23.200;2023-11-22T00:52:32;132624.78;;;10.94;97.48
1776;BME280;885;42.626;23.200;2023-11-22T00:54:58;132598.91;;;10.82;98.72
1776;BME280;885;42.626;23.200;2023-11-22T00:57:25;132593.50;;;10.80;99.05
1776;BME280;885;42.626;23.200;2023-11-22T00:59:53;132594.59;;;10.80;99.88
1776;BME280;885;42.626;23.200;2023-11-22T01:02:20;132956.25;;;10.77;99.39
1776;BME280;885;42.626;23.200;2023-11-22T01:04:47;132946.50;;;10.73;100.00
1776;BME280;885;42.626;23.200;2023-11-22T01:07:13;132944.38;;;10.72;100.00
1776;BME280;885;42.626;23.200;2023-11-22T01:09:40;132937.88;;;10.69;100.00
1776;BME280;885;42.626;23.200;2023-11-22T01:12:07;133326.59;;;10.78;100.00
1776;BME280;885;42.626;23.200;2023-11-22T01:14:34;133331.97;;;10.81;100.00
1776;BME280;885;42.626;23.200;2023-11-22T01:17:02;133326.59;;;10.78;100.00
1776;BME280;885;42.626;23.200;2023-11-22T01:19:29;133309.25;;;10.70;99.92
1776;BME280;885;42.626;23.200;2023-11-22T01:21:56;132919.47;;;10.60;100.00
1776;BME280;885;42.626;23.200;2023-11-22T01:24:23;132549.31;;;10.59;100.00
1776;BME280;885;42.626;23.200;2023-11-22T01:26:51;132546.09;;;10.58;100.00
1776;BME280;885;42.626;23.200;2023-11-22T01:29:18;132170.56;;;10.54;99.32
1776;BME280;885;42.626;23.200;2023-11-22T01:31:44;132159.84;;;10.49;100.00
1776;BME280;885;42.626;23.200;2023-11-22T01:34:14;132523.47;;;10.47;100.00
1776;BME280;885;42.626;23.200;2023-11-22T01:36:43;132527.78;;;10.49;100.00
1776;BME280;885;42.626;23.200;2023-11-22T01:39:10;132875.16;;;10.39;100.00
1776;BME280;885;42.626;23.200;2023-11-22T01:41:38;132485.72;;;10.29;100.00
1776;BME280;885;42.626;23.200;2023-11-22T01:44:05;132469.59;;;10.22;100.00
1776;BME280;885;42.626;23.200;2023-11-22T01:46:32;132455.56;;;10.15;100.00
1776;BME280;885;42.626;23.200;2023-11-22T01:49:00;132809.22;;;10.09;100.00
1776;BME280;885;42.626;23.200;2023-11-22T01:51:28;132801.69;;;10.05;100.00
1776;BME280;885;42.626;23.200;2023-11-22T01:53:56;132791.94;;;10.01;100.00
1776;BME280;885;42.626;23.200;2023-11-22T01:56:26;133159.63;;;10.01;100.00
1776;BME280;885;42.626;23.200;2023-11-22T01:58:54;133145.53;;;9.94;100.00
1776;BME280;885;42.626;23.200;2023-11-22T02:01:21;132767.06;;;9.89;100.00
1776;BME280;885;42.626;23.200;2023-11-22T02:03:48;132763.84;;;9.88;100.00
1776;BME280;885;42.626;23.200;2023-11-22T02:06:18;132772.47;;;9.92;100.00
1776;BME280;885;42.626;23.200;2023-11-22T02:08:46;132776.81;;;9.94;100.00
1776;BME280;885;42.626;23.200;2023-11-22T02:11:13;132776.81;;;9.94;100.00
1776;BME280;885;42.626;23.200;2023-11-22T02:13:47;132785.44;;;9.98;100.00
1776;BME280;885;42.626;23.200;2023-11-22T02:16:14;132785.44;;;9.98;100.00
1776;BME280;885;42.626;23.200;2023-11-22T02:18:40;133160.69;;;10.01;100.00
1776;BME280;885;42.626;23.200;2023-11-22T02:21:07;133146.63;;;9.95;100.00
1776;BME280;885;42.626;23.200;2023-11-22T02:23:35;133142.31;;;9.93;100.00
1776;BME280;885;42.626;23.200;2023-11-22T02:26:02;133135.78;;;9.90;100.00
1776;BME280;885;42.626;23.200;2023-11-22T02:28:29;133116.28;;;9.81;100.00
1776;BME280;885;42.626;23.200;2023-11-22T02:30:55;133107.59;;;9.77;100.00
1776;BME280;885;42.626;23.200;2023-11-22T02:33:22;133103.28;;;9.75;100.00
1776;BME280;885;42.626;23.200;2023-11-22T02:35:50;133098.94;;;9.73;100.00
1776;BME280;885;42.626;23.200;2023-11-22T02:38:17;132715.25;;;9.65;100.00
1776;BME280;885;42.626;23.200;2023-11-22T02:40:45;133083.75;;;9.66;100.00
1776;BME280;885;42.626;23.200;2023-11-22T02:43:12;133065.38;;;9.57;100.00
1776;BME280;885;42.626;23.200;2023-11-22T02:45:38;133433.88;;;9.57;100.00
1776;BME280;885;42.626;23.200;2023-11-22T02:48:05;133803.56;;;9.58;100.00
1776;BME280;885;42.626;23.200;2023-11-22T02:50:35;133437.19;;;9.59;100.00
1776;BME280;885;42.626;23.200;2023-11-22T02:53:02;133055.63;;;9.52;100.00
1776;BME280;885;42.626;23.200;2023-11-22T02:55:29;133051.28;;;9.50;100.00
1776;BME280;885;42.626;23.200;2023-11-22T02:57:57;133430.63;;;9.56;100.00
1776;BME280;885;42.626;23.200;2023-11-22T03:00:24;133057.78;;;9.53;100.00
1776;BME280;885;42.626;23.200;2023-11-22T03:02:50;133446.91;;;9.63;100.00
1776;BME280;885;42.626;23.200;2023-11-22T03:05:19;133443.66;;;9.62;100.00
1776;BME280;885;42.626;23.200;2023-11-22T03:07:46;133451.25;;;9.66;100.00
1776;BME280;885;42.626;23.200;2023-11-22T03:10:12;133451.25;;;9.66;100.00
1776;BME280;885;42.626;23.200;2023-11-22T03:12:39;133451.25;;;9.66;100.00
1776;BME280;885;42.626;23.200;2023-11-22T03:15:08;133094.59;;;9.71;100.00
1776;BME280;885;42.626;23.200;2023-11-22T03:17:36;133104.38;;;9.75;100.00
1776;BME280;885;42.626;23.200;2023-11-22T03:20:05;133473.03;;;9.76;100.00
1776;BME280;885;42.626;23.200;2023-11-22T03:22:34;133475.16;;;9.77;100.00
1776;BME280;885;42.626;23.200;2023-11-22T03:25:02;133468.69;;;9.74;100.00
1776;BME280;885;42.626;23.200;2023-11-22T03:27:30;133827.56;;;9.70;100.00
1776;BME280;885;42.626;23.200;2023-11-22T03:29:57;133814.44;;;9.63;100.00
1776;BME280;885;42.626;23.200;2023-11-22T03:32:25;134175.47;;;9.60;100.00
1776;BME280;885;42.626;23.200;2023-11-22T03:34:51;134168.88;;;9.57;100.00
1776;BME280;885;42.626;23.200;2023-11-22T03:37:18;134532.06;;;9.55;100.00
1776;BME280;885;42.626;23.200;2023-11-22T03:39:45;134142.69;;;9.45;100.00
1776;BME280;885;42.626;23.200;2023-11-22T03:42:14;134518.91;;;9.49;100.00
1776;BME280;885;42.626;23.200;2023-11-22T03:44:41;134505.78;;;9.43;100.00
1776;BME280;885;42.626;23.200;2023-11-22T03:47:09;134516.75;;;9.48;100.00
1776;BME280;885;42.626;23.200;2023-11-22T03:49:37;134890.84;;;9.51;100.00
1776;BME280;885;42.626;23.200;2023-11-22T03:52:05;134879.88;;;9.46;100.00
1776;BME280;885;42.626;23.200;2023-11-22T03:54:33;135255.13;;;9.50;100.00
1776;BME280;885;42.626;23.200;2023-11-22T03:57:00;135268.34;;;9.56;100.00
1776;BME280;885;42.626;23.200;2023-11-22T03:59:27;135266.16;;;9.55;100.00
1776;BME280;885;42.626;23.200;2023-11-22T04:01:54;135276.03;;;9.59;100.00
1776;BME280;885;42.626;23.200;2023-11-22T04:04:20;134908.41;;;9.59;100.00
1776;BME280;885;42.626;23.200;2023-11-22T04:06:49;134912.81;;;9.61;100.00
1776;BME280;885;42.626;23.200;2023-11-22T04:09:16;134537.53;;;9.58;100.00
1776;BME280;885;42.626;23.200;2023-11-22T04:11:43;134536.44;;;9.57;100.00
1776;BME280;885;42.626;23.200;2023-11-22T04:14:10;134549.59;;;9.63;100.00
1776;BME280;885;42.626;23.200;2023-11-22T04:16:36;134547.41;;;9.63;100.00
1776;BME280;885;42.626;23.200;2023-11-22T04:19:03;134539.75;;;9.59;100.00
1776;BME280;885;42.626;23.200;2023-11-22T04:21:30;134540.81;;;9.59;100.00
1776;BME280;885;42.626;23.200;2023-11-22T04:23:58;134911.75;;;9.61;100.00
1776;BME280;885;42.626;23.200;2023-11-22T04:26:25;134907.34;;;9.59;100.00
1776;BME280;885;42.626;23.200;2023-11-22T04:28:52;135285.97;;;9.64;100.00
1776;BME280;885;42.626;23.200;2023-11-22T04:31:18;135282.69;;;9.63;100.00
1776;BME280;885;42.626;23.200;2023-11-22T04:33:45;135655.91;;;9.65;100.00
1776;BME280;885;42.626;23.200;2023-11-22T04:36:12;135654.78;;;9.65;100.00
1776;BME280;885;42.626;23.200;2023-11-22T04:38:39;136028.06;;;9.67;100.00
1776;BME280;885;42.626;23.200;2023-11-22T04:41:07;136020.25;;;9.63;100.00
1776;BME280;885;42.626;23.200;2023-11-22T04:43:34;136393.59;;;9.66;100.00
1776;BME280;885;42.626;23.200;2023-11-22T04:46:02;136394.69;;;9.67;100.00
1776;BME280;885;42.626;23.200;2023-11-22T04:48:29;136773.66;;;9.72;100.00
1776;BME280;885;42.626;23.200;2023-11-22T04:50:56;136772.53;;;9.71;100.00
1776;BME280;885;42.626;23.200;2023-11-22T04:53:23;136787.03;;;9.78;100.00
1776;BME280;885;42.626;23.200;2023-11-22T04:55:49;136793.69;;;9.81;100.00
1776;BME280;885;42.626;23.200;2023-11-22T04:58:17;136434.69;;;9.85;100.00
1776;BME280;885;42.626;23.200;2023-11-22T05:00:44;136806.00;;;9.86;100.00
1776;BME280;885;42.626;23.200;2023-11-22T05:03:11;136804.88;;;9.86;100.00
1776;BME280;885;42.626;23.200;2023-11-22T05:05:38;136800.41;;;9.84;100.00
1776;BME280;885;42.626;23.200;2023-11-22T05:08:05;137520.63;;;9.77;100.00
1776;BME280;885;42.626;23.200;2023-11-22T05:10:31;137888.59;;;9.77;100.00
1776;BME280;885;42.626;23.200;2023-11-22T05:12:58;138617.84;;;9.74;100.00
1776;BME280;885;42.626;23.200;2023-11-22T05:15:27;138973.41;;;9.68;100.00
1776;BME280;885;42.626;23.200;2023-11-22T05:17:54;139692.44;;;9.60;100.00
1776;BME280;885;42.626;23.200;2023-11-22T05:20:21;140430.88;;;9.61;100.00
1776;BME280;885;42.626;23.200;2023-11-22T05:22:48;141535.38;;;9.61;100.00
1776;BME280;885;42.626;23.200;2023-11-22T05:25:15;142996.84;;;9.56;100.00
1776;BME280;885;42.626;23.200;2023-11-22T05:27:41;144470.38;;;9.56;100.00
1776;BME280;885;42.626;23.200;2023-11-22T05:30:09;145563.94;;;9.51;100.00
1776;BME280;885;42.626;23.200;2023-11-22T05:32:38;147040.69;;;9.52;100.00
1776;BME280;885;42.626;23.200;2023-11-22T05:35:05;148515.56;;;9.52;100.00
1776;BME280;885;42.626;23.200;2023-11-22T05:37:35;149622.03;;;9.52;100.00
1776;BME280;885;42.626;23.200;2023-11-22T05:40:02;150721.41;;;9.49;100.00
1776;BME280;885;42.626;23.200;2023-11-22T05:42:30;151827.19;;;9.49;100.00
1776;BME280;885;42.626;23.200;2023-11-22T05:44:57;152938.28;;;9.50;100.00
1776;BME280;885;42.626;23.200;2023-11-22T05:47:23;154054.72;;;9.54;100.00
1776;BME280;885;42.626;23.200;2023-11-22T05:49:52;154785.72;;;9.51;100.00
1776;BME280;885;42.626;23.200;2023-11-22T05:52:18;155898.97;;;9.53;100.00
1776;BME280;885;42.626;23.200;2023-11-22T05:54:47;157003.59;;;9.51;100.00
1776;BME280;885;42.626;23.200;2023-11-22T05:57:14;158091.59;;;9.43;100.00
1776;BME280;885;42.626;23.200;2023-11-22T05:59:41;159200.47;;;9.43;100.00
1776;BME280;885;42.626;23.200;2023-11-22T06:02:07;159945.13;;;9.45;100.00
1776;BME280;885;42.626;23.200;2023-11-22T06:04:34;161038.69;;;9.39;100.00
1776;BME280;885;42.626;23.200;2023-11-22T06:07:03;161405.84;;;9.38;100.00
1776;BME280;885;42.626;23.200;2023-11-22T06:09:30;162146.94;;;9.39;100.00
1776;BME280;885;42.626;23.200;2023-11-22T06:11:57;162518.22;;;9.39;100.00
1776;BME280;885;42.626;23.200;2023-11-22T06:14:23;162885.47;;;9.38;100.00
1776;BME280;885;42.626;23.200;2023-11-22T06:16:50;162904.22;;;9.45;100.00
1776;BME280;885;42.626;23.200;2023-11-22T06:19:17;162164.25;;;9.45;100.00
1776;BME280;885;42.626;23.200;2023-11-22T06:21:43;161791.69;;;9.44;100.00
1776;BME280;885;42.626;23.200;2023-11-22T06:24:12;162174.91;;;9.49;100.00
1776;BME280;885;42.626;23.200;2023-11-22T06:26:41;162168.22;;;9.47;100.00
1776;BME280;885;42.626;23.200;2023-11-22T06:29:08;162539.56;;;9.47;100.00
1776;BME280;885;42.626;23.200;2023-11-22T06:31:35;163284.97;;;9.49;100.00
1776;BME280;885;42.626;23.200;2023-11-22T06:34:03;164011.75;;;9.44;100.00
1776;BME280;885;42.626;23.200;2023-11-22T06:36:30;164379.16;;;9.43;100.00
1776;BME280;885;42.626;23.200;2023-11-22T06:38:58;165118.09;;;9.43;100.00
1776;BME280;885;42.626;23.200;2023-11-22T06:41:26;165859.94;;;9.43;100.00
1776;BME280;885;42.626;23.200;2023-11-22T06:43:54;166593.69;;;9.41;100.00
1776;BME280;885;42.626;23.200;2023-11-22T06:46:21;167671.72;;;9.29;100.00
1776;BME280;885;42.626;23.200;2023-11-22T06:48:48;167688.25;;;9.35;100.00
1776;BME280;885;42.626;23.200;2023-11-22T06:51:15;167717.34;;;9.44;100.00
1776;BME280;885;42.626;23.200;2023-11-22T06:53:43;167700.78;;;9.38;100.00
1776;BME280;885;42.626;23.200;2023-11-22T06:56:10;167696.66;;;9.37;100.00
1776;BME280;885;42.626;23.200;2023-11-22T06:58:39;167698.03;;;9.37;100.00
1776;BME280;885;42.626;23.200;2023-11-22T07:01:05;167608.50;;;9.05;100.00
1776;BME280;885;42.626;23.200;2023-11-22T07:03:35;167590.59;;;8.98;100.00
1776;BME280;885;42.626;23.200;2023-11-22T07:06:03;167524.34;;;8.75;100.00
1776;BME280;885;42.626;23.200;2023-11-22T07:08:30;167126.88;;;8.65;100.00
1776;BME280;885;42.626;23.200;2023-11-22T07:10:57;167135.09;;;8.68;100.00
1776;BME280;885;42.626;23.200;2023-11-22T07:13:23;167518.84;;;8.73;100.00
1776;BME280;885;42.626;23.200;2023-11-22T07:15:53;167540.84;;;8.81;100.00
1776;BME280;885;42.626;23.200;2023-11-22T07:18:19;167529.84;;;8.77;100.00
1776;BME280;885;42.626;23.200;2023-11-22T07:20:49;167550.47;;;8.85;100.00
1776;BME280;885;42.626;23.200;2023-11-22T07:23:18;167546.47;;;8.82;100.00
1776;BME280;885;42.626;23.200;2023-11-22T07:25:46;167551.97;;;8.84;100.00
1776;BME280;885;42.626;23.200;2023-11-22T07:28:13;167549.25;;;8.83;100.00
1776;BME280;885;42.626;23.200;2023-11-22T07:30:40;167527.22;;;8.75;100.00
1776;BME280;885;42.626;23.200;2023-11-22T07:33:08;167516.22;;;8.71;100.00
1776;BME280;885;42.626;23.200;2023-11-22T07:35:36;167536.84;;;8.78;100.00
1776;BME280;885;42.626;23.200;2023-11-22T07:38:04;167531.34;;;8.76;100.00
1776;BME280;885;42.626;23.200;2023-11-22T07:40:33;167551.97;;;8.84;100.00
1776;BME280;885;42.626;23.200;2023-11-22T07:43:00;167571.28;;;8.91;100.00
1776;BME280;885;42.626;23.200;2023-11-22T07:45:28;167582.31;;;8.95;100.00
1776;BME280;885;42.626;23.200;2023-11-22T07:47:55;167604.34;;;9.03;100.00
1776;BME280;885;42.626;23.200;2023-11-22T07:50:26;167626.38;;;9.11;100.00
1776;BME280;885;42.626;23.200;2023-11-22T07:52:52;167626.38;;;9.11;100.00
1776;BME280;885;42.626;23.200;2023-11-22T07:55:20;167642.94;;;9.17;100.00
1776;BME280;885;42.626;23.200;2023-11-22T07:57:47;167656.69;;;9.22;100.00
1776;BME280;885;42.626;23.200;2023-11-22T08:00:15;167684.25;;;9.32;100.00
1776;BME280;885;42.626;23.200;2023-11-22T08:02:44;167706.34;;;9.40;100.00
1776;BME280;885;42.626;23.200;2023-11-22T08:05:11;167713.19;;;9.43;100.00
1776;BME280;885;42.626;23.200;2023-11-22T08:07:42;167736.59;;;9.51;100.00
1776;BME280;885;42.626;23.200;2023-11-22T08:10:11;167689.75;;;9.34;100.00
1776;BME280;885;42.626;23.200;2023-11-22T08:12:44;167653.97;;;9.21;100.00
1776;BME280;885;42.626;23.200;2023-11-22T08:15:13;167667.72;;;9.26;100.00
1776;BME280;885;42.626;23.200;2023-11-22T08:17:40;167678.72;;;9.30;100.00
1776;BME280;885;42.626;23.200;2023-11-22T08:20:08;167685.63;;;9.33;100.00
1776;BME280;885;42.626;23.200;2023-11-22T08:22:38;167706.34;;;9.40;100.00
1776;BME280;885;42.626;23.200;2023-11-22T08:25:08;167715.97;;;9.44;100.00
1776;BME280;885;42.626;23.200;2023-11-22T08:27:38;167692.53;;;9.35;100.00
1776;BME280;885;42.626;23.200;2023-11-22T08:30:06;167689.75;;;9.34;100.00
1776;BME280;885;42.626;23.200;2023-11-22T08:32:35;167698.03;;;9.37;100.00
1776;BME280;885;42.626;23.200;2023-11-22T08:35:02;167710.44;;;9.42;100.00
1776;BME280;885;42.626;23.200;2023-11-22T08:37:33;167725.59;;;9.47;100.00
1776;BME280;885;42.626;23.200;2023-11-22T08:40:06;167742.13;;;9.53;100.00
1776;BME280;885;42.626;23.200;2023-11-22T08:42:36;167757.31;;;9.59;100.00
1776;BME280;885;42.626;23.200;2023-11-22T08:45:04;167777.97;;;9.67;100.00
1776;BME280;885;42.626;23.200;2023-11-22T08:47:30;167802.78;;;9.76;100.00
1776;BME280;885;42.626;23.200;2023-11-22T08:49:57;167827.56;;;9.85;100.00
1776;BME280;885;42.626;23.200;2023-11-22T08:52:24;167849.66;;;9.93;100.00
1776;BME280;885;42.626;23.200;2023-11-22T08:54:51;167879.97;;;10.04;100.00
1776;BME280;885;42.626;23.200;2023-11-22T08:57:19;167885.47;;;10.06;100.00
1776;BME280;885;42.626;23.200;2023-11-22T08:59:46;167879.97;;;10.04;100.00
1776;BME280;885;42.626;23.200;2023-11-22T09:02:13;167846.88;;;9.92;100.00
1776;BME280;885;42.626;23.200;2023-11-22T09:04:40;167855.19;;;9.95;100.00
1776;BME280;885;42.626;23.200;2023-11-22T09:07:08;167857.91;;;9.96;100.00
1776;BME280;885;42.626;23.200;2023-11-22T09:09:36;167859.31;;;9.96;100.00
1776;BME280;885;42.626;23.200;2023-11-22T09:12:04;167860.69;;;9.97;100.00
1776;BME280;885;42.626;23.200;2023-11-22T09:14:39;167830.34;;;9.86;100.00
1776;BME280;885;42.626;23.200;2023-11-22T09:17:07;167729.72;;;9.49;100.00
1776;BME280;885;42.626;23.200;2023-11-22T09:19:35;167722.84;;;9.46;100.00
1776;BME280;885;42.626;23.200;2023-11-22T09:22:03;167740.72;;;9.53;100.00
1776;BME280;885;42.626;23.200;2023-11-22T09:24:32;167761.44;;;9.60;100.00
1776;BME280;885;42.626;23.200;2023-11-22T09:26:58;167779.34;;;9.67;100.00
1776;BME280;885;42.626;23.200;2023-11-22T09:29:28;167773.84;;;9.65;100.00
1776;BME280;885;42.626;23.200;2023-11-22T09:31:56;167744.91;;;9.54;100.00
1776;BME280;885;42.626;23.200;2023-11-22T09:34:23;167717.34;;;9.44;100.00
1776;BME280;885;42.626;23.200;2023-11-22T09:36:50;167731.09;;;9.49;100.00
1776;BME280;885;42.626;23.200;2023-11-22T09:39:17;167731.09;;;9.49;100.00
1776;BME280;885;42.626;23.200;2023-11-22T09:41:46;167711.84;;;9.42;100.00
1776;BME280;885;42.626;23.200;2023-11-22T09:44:13;167684.25;;;9.32;100.00
1776;BME280;885;42.626;23.200;2023-11-22T09:46:42;167687.03;;;9.33;100.00
1776;BME280;885;42.626;23.200;2023-11-22T09:49:14;167717.34;;;9.44;100.00
1776;BME280;885;42.626;23.200;2023-11-22T09:51:48;167735.22;;;9.51;100.00
1776;BME280;885;42.626;23.200;2023-11-22T09:54:18;167764.16;;;9.61;100.00
1776;BME280;885;42.626;23.200;2023-11-22T09:56:49;167761.44;;;9.60;100.00
1776;BME280;885;42.626;23.200;2023-11-22T09:59:18;167776.56;;;9.66;100.00
1776;BME280;885;42.626;23.200;2023-11-22T10:01:48;167793.09;;;9.72;100.00
1776;BME280;885;42.626;23.200;2023-11-22T10:04:16;167775.19;;;9.66;100.00
1776;BME280;885;42.626;23.200;2023-11-22T10:06:43;167725.59;;;9.47;100.00
1776;BME280;885;42.626;23.200;2023-11-22T10:09:12;167740.72;;;9.53;100.00
1776;BME280;885;42.626;23.200;2023-11-22T10:11:39;167769.69;;;9.63;100.00
1776;BME280;885;42.626;23.200;2023-11-22T10:14:08;167794.50;;;9.73;100.00
1776;BME280;885;42.626;23.200;2023-11-22T10:16:36;167772.47;;;9.65;100.00
1776;BME280;885;42.626;23.200;2023-11-22T10:19:03;167757.31;;;9.59;100.00
1776;BME280;885;42.626;23.200;2023-11-22T10:21:33;167722.84;;;9.46;100.00
1776;BME280;885;42.626;23.200;2023-11-22T10:24:01;167699.44;;;9.38;100.00
1776;BME280;885;42.626;23.200;2023-11-22T10:26:28;167689.75;;;9.34;100.00
1776;BME280;885;42.626;23.200;2023-11-22T10:28:56;167724.19;;;9.47;100.00
1776;BME280;885;42.626;23.200;2023-11-22T10:31:22;167766.94;;;9.63;100.00
1776;BME280;885;42.626;23.200;2023-11-22T10:33:50;167766.94;;;9.63;100.00
1776;BME280;885;42.626;23.200;2023-11-22T10:36:18;167772.47;;;9.65;100.00
1776;BME280;885;42.626;23.200;2023-11-22T10:38:47;167742.13;;;9.53;100.00
1776;BME280;885;42.626;23.200;2023-11-22T10:41:14;167736.59;;;9.51;100.00
1776;BME280;885;42.626;23.200;2023-11-22T10:43:41;167755.91;;;9.58;100.00
1776;BME280;885;42.626;23.200;2023-11-22T10:46:10;167773.84;;;9.65;100.00
1776;BME280;885;42.626;23.200;2023-11-22T10:48:39;167783.47;;;9.69;100.00
1776;BME280;885;42.626;23.200;2023-11-22T10:51:06;167795.88;;;9.73;100.00
1776;BME280;885;42.626;23.200;2023-11-22T10:53:43;167800.00;;;9.75;100.00
1776;BME280;885;42.626;23.200;2023-11-22T10:56:15;167819.34;;;9.82;100.00
1776;BME280;885;42.626;23.200;2023-11-22T10:58:46;167827.56;;;9.85;100.00
1776;BME280;885;42.626;23.200;2023-11-22T11:01:15;167824.84;;;9.84;100.00
1776;BME280;885;42.626;23.200;2023-11-22T11:03:46;167779.34;;;9.67;100.00
1776;BME280;885;42.626;23.200;2023-11-22T11:06:20;167777.97;;;9.67;100.00
1776;BME280;885;42.626;23.200;2023-11-22T11:08:53;167783.47;;;9.69;100.00
1776;BME280;885;42.626;23.200;2023-11-22T11:11:22;167761.44;;;9.60;100.00
1776;BME280;885;42.626;23.200;2023-11-22T11:13:51;167765.56;;;9.62;100.00
1776;BME280;885;42.626;23.200;2023-11-22T11:16:19;167747.63;;;9.55;100.00
1776;BME280;885;42.626;23.200;2023-11-22T11:18:47;167750.41;;;9.56;100.00
1776;BME280;885;42.626;23.200;2023-11-22T11:21:15;167777.97;;;9.67;100.00
1776;BME280;885;42.626;23.200;2023-11-22T11:23:43;167776.56;;;9.66;100.00
1776;BME280;885;42.626;23.200;2023-11-22T11:26:16;167772.47;;;9.65;100.00
1776;BME280;885;42.626;23.200;2023-11-22T11:28:46;167750.41;;;9.56;100.00
1776;BME280;885;42.626;23.200;2023-11-22T11:31:14;167758.66;;;9.59;100.00
1776;BME280;885;42.626;23.200;2023-11-22T11:33:55;167766.94;;;9.63;100.00
1776;BME280;885;42.626;23.200;2023-11-22T11:36:24;167772.47;;;9.65;100.00
1776;BME280;885;42.626;23.200;2023-11-22T11:38:52;167787.59;;;9.70;100.00
1776;BME280;885;42.626;23.200;2023-11-22T11:41:24;167794.50;;;9.73;100.00
1776;BME280;885;42.626;23.200;2023-11-22T11:43:53;167782.09;;;9.68;100.00
1776;BME280;885;42.626;23.200;2023-11-22T11:46:22;167794.50;;;9.73;100.00
1776;BME280;885;42.626;23.200;2023-11-22T11:48:52;167789.00;;;9.71;100.00
1776;BME280;885;42.626;23.200;2023-11-22T11:51:21;167791.78;;;9.72;100.00
1776;BME280;885;42.626;23.200;2023-11-22T11:53:48;167806.91;;;9.77;100.00
1776;BME280;885;42.626;23.200;2023-11-22T11:56:16;167833.06;;;9.87;100.00
1776;BME280;885;42.626;23.200;2023-11-22T11:58:43;167811.03;;;9.79;100.00
1776;BME280;885;42.626;23.200;2023-11-22T12:01:13;167789.00;;;9.71;100.00
1776;BME280;885;42.626;23.200;2023-11-22T12:03:40;167804.13;;;9.76;100.00
1776;BME280;885;42.626;23.200;2023-11-22T12:06:07;167811.03;;;9.79;100.00
1776;BME280;885;42.626;23.200;2023-11-22T12:08:34;167809.66;;;9.78;100.00
1776;BME280;885;42.626;23.200;2023-11-22T12:11:02;167755.91;;;9.58;100.00
1776;BME280;885;42.626;23.200;2023-11-22T12:13:30;167739.41;;;9.52;100.00
1776;BME280;885;42.626;23.200;2023-11-22T12:15:57;167732.50;;;9.50;100.00
1776;BME280;885;42.626;23.200;2023-11-22T12:18:25;167733.88;;;9.50;100.00
1776;BME280;885;42.626;23.200;2023-11-22T12:20:56;167754.53;;;9.58;100.00
1776;BME280;885;42.626;23.200;2023-11-22T12:23:24;167779.34;;;9.67;100.00
1776;BME280;885;42.626;23.200;2023-11-22T12:25:56;167805.53;;;9.77;100.00
1776;BME280;885;42.626;23.200;2023-11-22T12:28:23;167827.56;;;9.85;100.00
1776;BME280;885;42.626;23.200;2023-11-22T12:30:51;167846.88;;;9.92;100.00
1776;BME280;885;42.626;23.200;2023-11-22T12:33:17;167871.72;;;10.01;100.00
1776;BME280;885;42.626;23.200;2023-11-22T12:35:46;167903.47;;;10.12;100.00
1776;BME280;885;42.626;23.200;2023-11-22T12:38:14;167939.31;;;10.25;100.00
1776;BME280;885;42.626;23.200;2023-11-22T12:40:45;167948.94;;;10.29;100.00
1776;BME280;885;42.626;23.200;2023-11-22T12:43:13;167937.94;;;10.25;100.00
1776;BME280;885;42.626;23.200;2023-11-22T12:45:40;167921.38;;;10.19;100.00
1776;BME280;885;42.626;23.200;2023-11-22T12:48:22;167910.34;;;10.15;100.00
1776;BME280;885;42.626;23.200;2023-11-22T12:50:51;167882.75;;;10.05;100.00
1776;BME280;885;42.626;23.200;2023-11-22T12:53:19;167886.88;;;10.06;100.00
1776;BME280;885;42.626;23.200;2023-11-22T12:55:48;167900.72;;;10.11;100.00
1776;BME280;885;42.626;23.200;2023-11-22T12:58:16;167900.72;;;10.11;100.00
1776;BME280;885;42.626;23.200;2023-11-22T13:00:44;167910.34;;;10.15;100.00
1776;BME280;885;42.626;23.200;2023-11-22T13:03:11;167881.34;;;10.04;100.00
1776;BME280;885;42.626;23.200;2023-11-22T13:05:38;167874.44;;;10.02;100.00
1776;BME280;885;42.626;23.200;2023-11-22T13:08:06;167866.19;;;9.99;100.00
1776;BME280;885;42.626;23.200;2023-11-22T13:10:33;167848.28;;;9.92;100.00
1776;BME280;885;42.626;23.200;2023-11-22T13:13:00;167827.56;;;9.85;100.00